Time;durP1;ratioP1;P1;durP2;ratioP2;P2;SDS_P1;SDS_P2;PMS_P1;PMS_P2;Temp;Humidity;BMP_temperature;BMP_pressure;BME280_temperature;BME280_humidity;BME280_pressure;Samples;Min_cycle;Max_cycle;Signal;HPM_P1;HPM_P2
2023/02/03 00:01:44;;;;;;;68.63;9.07;;;6.60;99.90;;;;;;5053577;28;20104;-69
2023/02/03 00:04:10;;;;;;;92.13;11.25;;;6.60;99.90;;;;;;5053157;28;20394;-69
2023/02/03 00:06:35;;;;;;;76.00;11.10;;;6.70;99.90;;;;;;5053268;28;20479;-69
2023/02/03 00:09:01;;;;;;;85.68;11.60;;;6.60;99.90;;;;;;5053421;28;20108;-69
2023/02/03 00:11:29;;;;;;;79.57;8.98;;;6.60;99.90;;;;;;5052921;28;20059;-69
2023/02/03 00:13:55;;;;;;;78.45;10.38;;;6.60;99.90;;;;;;5053085;28;20372;-69
2023/02/03 00:16:20;;;;;;;83.63;9.40;;;6.60;99.90;;;;;;5053097;28;20036;-69
2023/02/03 00:18:46;;;;;;;71.55;9.70;;;6.60;99.90;;;;;;5052711;28;20025;-69
2023/02/03 00:21:13;;;;;;;59.88;8.60;;;6.70;99.90;;;;;;5053246;28;20506;-69
2023/02/03 00:23:42;;;;;;;58.45;8.15;;;6.70;99.90;;;;;;5052960;28;20475;-69
2023/02/03 00:26:09;;;;;;;61.92;9.07;;;6.70;99.90;;;;;;5053109;28;20040;-69
2023/02/03 00:28:35;;;;;;;72.40;8.52;;;6.70;99.90;;;;;;5052907;28;20056;-69
2023/02/03 00:31:00;;;;;;;68.28;9.13;;;6.70;99.90;;;;;;5051748;28;20570;-69
2023/02/03 00:33:26;;;;;;;63.28;8.52;;;6.80;99.90;;;;;;5052517;28;20025;-69
2023/02/03 00:35:51;;;;;;;93.95;8.82;;;6.80;99.90;;;;;;5052915;28;20029;-69
2023/02/03 00:38:17;;;;;;;87.13;9.68;;;6.80;99.90;;;;;;5053053;28;20029;-69
2023/02/03 00:40:51;;;;;;;66.50;8.52;;;6.80;99.90;;;;;;5053000;28;20017;-69
2023/02/03 00:43:16;;;;;;;68.47;8.40;;;6.80;99.90;;;;;;5068243;28;20463;-69
2023/02/03 00:45:42;;;;;;;75.00;10.23;;;6.80;99.90;;;;;;5052584;28;20040;-70
2023/02/03 00:48:07;;;;;;;93.18;8.25;;;6.80;99.90;;;;;;5059657;28;20028;-70
2023/02/03 00:50:33;;;;;;;86.88;9.88;;;6.80;99.90;;;;;;5048490;28;20021;-70
2023/02/03 00:52:58;;;;;;;79.18;8.13;;;6.80;99.90;;;;;;5057844;28;20422;-70
2023/02/03 00:55:24;;;;;;;66.68;8.75;;;6.80;99.90;;;;;;5057469;28;20500;-69
2023/02/03 00:57:50;;;;;;;85.45;9.20;;;6.80;99.90;;;;;;5056556;28;20037;-70
2023/02/03 01:00:16;;;;;;;65.82;8.85;;;6.80;99.90;;;;;;5056543;28;20409;-70
2023/02/03 01:02:42;;;;;;;80.45;8.25;;;6.80;99.90;;;;;;5056567;28;20461;-70
2023/02/03 01:05:08;;;;;;;77.55;9.88;;;6.80;99.90;;;;;;5071777;28;20025;-69
2023/02/03 01:07:33;;;;;;;83.35;7.75;;;6.80;99.90;;;;;;5055153;28;20025;-69
2023/02/03 01:09:59;;;;;;;82.93;9.50;;;6.80;99.90;;;;;;5056163;28;20032;-69
2023/02/03 01:12:24;;;;;;;77.65;9.38;;;6.80;99.90;;;;;;5056551;28;20086;-70
2023/02/03 01:14:50;;;;;;;73.38;9.18;;;6.80;99.90;;;;;;5056269;28;20092;-69
2023/02/03 01:17:15;;;;;;;79.20;9.00;;;6.80;99.90;;;;;;5056145;28;20395;-69
2023/02/03 01:19:41;;;;;;;50.17;8.55;;;6.80;99.90;;;;;;5056225;28;20033;-69
2023/02/03 01:22:06;;;;;;;74.18;9.05;;;6.90;99.90;;;;;;5055964;28;20103;-70
2023/02/03 01:24:32;;;;;;;73.40;10.93;;;6.90;99.90;;;;;;5055963;28;20087;-70
2023/02/03 01:26:57;;;;;;;90.82;10.85;;;6.80;99.90;;;;;;5055977;28;20036;-69
2023/02/03 01:29:23;;;;;;;97.63;11.80;;;6.80;99.90;;;;;;5055882;28;20017;-70
2023/02/03 01:31:48;;;;;;;65.25;7.95;;;6.80;99.90;;;;;;5056096;28;20075;-69
2023/02/03 01:34:15;;;;;;;72.57;9.38;;;6.80;99.90;;;;;;5054382;28;20029;-70
2023/02/03 01:36:41;;;;;;;74.70;9.02;;;6.80;99.90;;;;;;5042125;28;20035;-69
2023/02/03 01:39:07;;;;;;;63.53;8.35;;;6.80;99.90;;;;;;5043328;28;20100;-69
2023/02/03 01:41:35;;;;;;;69.50;9.05;;;6.80;99.90;;;;;;5056141;28;20067;-69
2023/02/03 01:44:21;;;;;;;70.18;9.02;;;6.80;99.90;;;;;;5051494;28;20438;-70
2023/02/03 01:46:49;;;;;;;73.75;8.07;;;6.70;99.90;;;;;;5035570;28;20060;-70
2023/02/03 01:49:23;;;;;;;69.43;10.00;;;6.70;99.90;;;;;;5043886;28;20025;-70
2023/02/03 01:51:52;;;;;;;73.82;10.60;;;6.70;99.90;;;;;;5055773;28;20479;-70
2023/02/03 01:54:23;;;;;;;76.72;10.13;;;6.70;99.90;;;;;;5055643;28;20044;-70
2023/02/03 01:56:57;;;;;;;81.50;9.98;;;6.70;99.90;;;;;;5055520;28;20027;-69
2023/02/03 01:59:24;;;;;;;64.82;8.15;;;6.60;99.90;;;;;;5055033;28;20491;-69
2023/02/03 02:01:51;;;;;;;60.80;8.57;;;6.70;99.90;;;;;;5055522;28;20047;-69
2023/02/03 02:04:17;;;;;;;72.88;10.40;;;6.70;99.90;;;;;;5055906;28;20033;-70
2023/02/03 02:06:46;;;;;;;68.70;8.45;;;6.70;99.90;;;;;;5055201;28;20478;-69
2023/02/03 02:09:13;;;;;;;67.55;8.30;;;6.70;99.90;;;;;;5053951;28;20013;-70
2023/02/03 02:11:38;;;;;;;64.15;8.05;;;6.80;99.90;;;;;;5055221;28;20039;-69
2023/02/03 02:14:04;;;;;;;58.17;7.95;;;6.80;99.90;;;;;;5055190;28;20017;-69
2023/02/03 02:16:48;;;;;;;81.07;9.05;;;6.80;99.90;;;;;;5055371;28;20514;-69
2023/02/03 02:19:47;;;;;;;78.95;8.85;;;6.80;99.90;;;;;;5053549;28;20032;-69
2023/02/03 02:22:28;;;;;;;82.82;8.95;;;6.80;99.90;;;;;;5054955;28;20199;-69
2023/02/03 02:25:22;;;;;;;64.70;8.10;;;6.90;99.90;;;;;;5054986;28;20406;-69
2023/02/03 02:28:03;;;;;;;67.55;7.80;;;6.80;99.90;;;;;;5055066;28;20025;-69
2023/02/03 02:30:43;;;;;;;66.57;7.43;;;6.80;99.90;;;;;;5055133;28;20023;-69
2023/02/03 02:33:17;;;;;;;68.22;10.43;;;6.90;99.90;;;;;;5055060;28;20039;-69
2023/02/03 02:35:49;;;;;;;65.63;8.57;;;6.90;99.90;;;;;;5055002;28;20116;-70
2023/02/03 02:38:42;;;;;;;92.70;9.50;;;6.90;99.90;;;;;;5052185;28;20063;-70
2023/02/03 02:41:27;;;;;;;73.45;9.95;;;6.90;99.90;;;;;;5035247;28;20411;-69
2023/02/03 02:44:08;;;;;;;70.47;10.18;;;6.90;99.90;;;;;;5034676;28;20025;-70
2023/02/03 02:46:56;;;;;;;77.38;7.88;;;6.80;99.90;;;;;;5035328;28;20029;-70
2023/02/03 02:49:32;;;;;;;63.30;8.23;;;6.90;99.90;;;;;;5035676;28;20537;-70
2023/02/03 02:52:02;;;;;;;89.20;11.55;;;6.90;99.90;;;;;;5054497;28;20028;-70
2023/02/03 02:54:30;;;;;;;81.15;8.23;;;6.90;99.90;;;;;;5054592;28;20017;-70
2023/02/03 02:56:59;;;;;;;87.18;8.45;;;6.90;99.90;;;;;;5054612;28;20483;-70
2023/02/03 02:59:25;;;;;;;78.18;9.90;;;6.90;99.90;;;;;;5054162;28;20029;-70
2023/02/03 03:01:51;;;;;;;61.20;8.35;;;6.90;99.90;;;;;;5054519;28;20391;-69
2023/02/03 03:04:22;;;;;;;71.32;9.80;;;6.90;99.90;;;;;;5054167;28;20044;-70
2023/02/03 03:07:03;;;;;;;60.15;9.43;;;6.90;99.90;;;;;;5064037;28;20052;-70
2023/02/03 03:09:45;;;;;;;74.50;9.27;;;6.90;99.90;;;;;;5073508;28;20075;-69
2023/02/03 03:12:44;;;;;;;71.63;7.35;;;6.90;99.90;;;;;;5074085;28;20021;-70
2023/02/03 03:15:14;;;;;;;88.90;10.00;;;6.90;99.90;;;;;;5040185;28;20471;-69
2023/02/03 03:17:48;;;;;;;70.05;8.32;;;6.90;99.90;;;;;;5053756;28;20048;-70
2023/02/03 03:20:21;;;;;;;65.63;10.10;;;6.90;99.90;;;;;;5053756;28;20021;-70
2023/02/03 03:22:51;;;;;;;83.20;9.18;;;6.90;99.90;;;;;;5055394;28;20025;-70
2023/02/03 03:25:23;;;;;;;84.57;11.23;;;6.90;99.90;;;;;;5054532;28;20025;-70
2023/02/03 03:27:58;;;;;;;65.47;9.20;;;6.90;99.90;;;;;;5054107;28;20098;-69
2023/02/03 03:30:32;;;;;;;88.22;11.13;;;6.90;99.90;;;;;;5053771;28;20017;-69
2023/02/03 03:32:57;;;;;;;71.28;9.82;;;6.90;99.90;;;;;;5053624;28;20025;-70
2023/02/03 03:35:37;;;;;;;77.45;9.00;;;6.90;99.90;;;;;;5053310;28;20035;-70
2023/02/03 03:38:10;;;;;;;85.72;10.90;;;6.90;99.90;;;;;;5053802;28;20082;-69
2023/02/03 03:40:43;;;;;;;76.30;8.73;;;6.90;99.90;;;;;;5053770;28;20029;-69
2023/02/03 03:43:16;;;;;;;76.90;9.23;;;6.90;99.90;;;;;;5053665;28;20075;-70
2023/02/03 03:45:51;;;;;;;91.78;10.43;;;6.90;99.90;;;;;;5053553;28;20095;-70
2023/02/03 03:48:33;;;;;;;80.85;10.07;;;6.90;99.90;;;;;;5053250;28;20025;-70
2023/02/03 03:51:03;;;;;;;104.57;12.73;;;7.00;99.90;;;;;;5053899;28;20032;-69
2023/02/03 03:53:33;;;;;;;73.63;10.43;;;7.00;99.90;;;;;;5053346;28;20497;-70
2023/02/03 03:56:02;;;;;;;67.90;10.43;;;7.00;99.90;;;;;;5053418;28;20104;-70
2023/02/03 03:58:30;;;;;;;84.97;11.05;;;7.00;99.90;;;;;;5062159;28;20016;-69
2023/02/03 04:01:01;;;;;;;83.85;10.52;;;7.10;99.90;;;;;;5073777;28;20066;-69
2023/02/03 04:03:55;;;;;;;85.65;9.90;;;7.10;99.90;;;;;;5073021;28;20020;-69
2023/02/03 04:06:20;;;;;;;79.93;8.63;;;7.10;99.90;;;;;;5065086;28;20037;-70
2023/02/03 04:08:46;;;;;;;85.45;12.50;;;7.10;99.90;;;;;;5053242;28;20395;-69
2023/02/03 04:11:59;;;;;;;84.28;10.20;;;7.10;99.90;;;;;;5052830;28;20464;-70
2023/02/03 04:13:57;;;;;;;64.60;8.88;;;7.20;99.90;;;;;;5053093;28;20503;-70
2023/02/03 04:16:22;;;;;;;73.35;9.35;;;7.20;99.90;;;;;;5073019;28;20067;-69
2023/02/03 04:18:48;;;;;;;69.25;8.93;;;7.20;99.90;;;;;;5072887;28;20116;-69
2023/02/03 04:21:13;;;;;;;59.72;8.93;;;7.20;99.90;;;;;;5074422;28;20025;-69
2023/02/03 04:23:39;;;;;;;79.20;10.20;;;7.30;99.90;;;;;;5061897;28;20430;-70
2023/02/03 04:26:04;;;;;;;63.45;9.82;;;7.30;99.90;;;;;;5056925;28;20028;-70
2023/02/03 04:28:30;;;;;;;57.22;9.25;;;7.20;99.90;;;;;;5057258;28;20379;-69
2023/02/03 04:30:59;;;;;;;78.57;7.95;;;7.30;99.90;;;;;;5057144;28;20495;-70
2023/02/03 04:33:25;;;;;;;73.53;9.60;;;7.30;99.90;;;;;;5056752;28;20124;-69
2023/02/03 04:35:50;;;;;;;59.28;9.20;;;7.30;99.90;;;;;;5056970;28;20095;-69
2023/02/03 04:38:16;;;;;;;90.72;11.40;;;7.30;99.90;;;;;;5057023;28;20060;-70
2023/02/03 04:40:44;;;;;;;70.28;10.63;;;7.30;99.90;;;;;;5057691;28;20025;-69
2023/02/03 04:43:10;;;;;;;85.40;10.77;;;7.30;99.90;;;;;;5056598;28;20021;-70
2023/02/03 04:45:36;;;;;;;73.28;11.18;;;7.30;99.90;;;;;;5057145;28;20386;-70
2023/02/03 04:48:03;;;;;;;82.05;9.80;;;7.30;99.90;;;;;;5056854;28;20503;-70
2023/02/03 04:50:29;;;;;;;70.80;10.07;;;7.30;99.90;;;;;;5056715;28;20021;-70
2023/02/03 04:52:55;;;;;;;65.43;9.75;;;7.20;99.90;;;;;;5056626;28;20021;-70
2023/02/03 04:55:20;;;;;;;85.70;10.60;;;7.30;99.90;;;;;;5056293;28;20079;-70
2023/02/03 04:57:46;;;;;;;93.22;11.60;;;7.20;99.90;;;;;;5056628;28;20441;-70
2023/02/03 05:00:12;;;;;;;86.57;11.50;;;7.30;99.90;;;;;;5056660;28;20029;-70
2023/02/03 05:02:37;;;;;;;82.82;10.73;;;7.20;99.90;;;;;;5056360;28;20032;-70
2023/02/03 05:05:03;;;;;;;80.90;11.38;;;7.20;99.90;;;;;;5050727;28;20025;-70
2023/02/03 05:07:29;;;;;;;88.07;11.32;;;7.30;99.90;;;;;;5037016;28;20025;-70
2023/02/03 05:09:54;;;;;;;95.72;12.23;;;7.30;99.90;;;;;;5051823;28;20476;-70
2023/02/03 05:12:20;;;;;;;82.30;11.15;;;7.20;99.90;;;;;;5036327;28;20026;-70
2023/02/03 05:14:45;;;;;;;73.15;10.05;;;7.20;99.90;;;;;;5036319;28;20092;-70
2023/02/03 05:17:11;;;;;;;75.65;10.57;;;7.20;99.90;;;;;;5036286;28;20544;-70
2023/02/03 05:19:36;;;;;;;88.18;11.70;;;7.20;99.90;;;;;;5054701;28;20051;-70
2023/02/03 05:22:02;;;;;;;97.03;13.23;;;7.20;99.90;;;;;;5056134;28;20033;-70
2023/02/03 05:24:28;;;;;;;76.00;10.98;;;7.10;99.90;;;;;;5054871;28;20483;-70
2023/02/03 05:26:53;;;;;;;86.65;11.43;;;7.10;99.90;;;;;;5057906;28;20036;-70
2023/02/03 05:29:19;;;;;;;93.20;12.75;;;7.10;99.90;;;;;;5076190;28;20020;-70
2023/02/03 05:31:44;;;;;;;82.28;12.05;;;7.00;99.90;;;;;;5070205;28;20108;-70
2023/02/03 05:34:10;;;;;;;99.03;12.65;;;7.00;99.90;;;;;;5055033;28;20029;-70
2023/02/03 05:36:36;;;;;;;88.35;11.93;;;7.10;99.90;;;;;;5053696;28;20025;-70
2023/02/03 05:39:01;;;;;;;103.18;10.75;;;7.10;99.90;;;;;;5044995;28;20048;-70
2023/02/03 05:44:11;;;;;;;;;;;7.20;99.90;;;;;;5056318;28;20031;-70
2023/02/03 05:46:36;;;;;;;83.18;11.73;;;7.20;99.90;;;;;;5055556;28;19909;-70
2023/02/03 05:49:02;;;;;;;79.85;10.60;;;7.20;99.90;;;;;;5056831;28;20039;-70
2023/02/03 05:51:27;;;;;;;98.20;11.27;;;7.20;99.90;;;;;;5053674;28;20025;-69
2023/02/03 05:53:53;;;;;;;88.40;11.93;;;7.30;99.90;;;;;;5055511;28;20028;-69
2023/02/03 05:56:18;;;;;;;81.55;11.13;;;7.30;99.90;;;;;;5055226;28;20039;-69
2023/02/03 05:58:44;;;;;;;83.50;10.57;;;7.30;99.90;;;;;;5055972;28;20025;-69
2023/02/03 06:01:10;;;;;;;103.60;12.98;;;7.30;99.90;;;;;;5055623;28;20415;-69
2023/02/03 06:03:36;;;;;;;100.47;12.25;;;7.40;99.90;;;;;;5055513;28;20029;-69
2023/02/03 06:06:02;;;;;;;81.65;12.52;;;7.40;99.90;;;;;;5054939;28;20364;-69
2023/02/03 06:08:27;;;;;;;82.60;10.45;;;7.40;99.90;;;;;;5055422;28;20044;-69
2023/02/03 06:10:58;;;;;;;96.00;11.20;;;7.50;99.90;;;;;;5055188;28;20418;-69
2023/02/03 06:13:24;;;;;;;101.60;11.23;;;7.50;99.90;;;;;;5054997;28;20045;-70
2023/02/03 06:15:49;;;;;;;88.43;12.70;;;7.50;99.90;;;;;;5055026;28;20122;-69
2023/02/03 06:18:15;;;;;;;91.28;12.25;;;7.50;99.90;;;;;;5037732;28;20083;-69
2023/02/03 06:20:40;;;;;;;82.53;11.32;;;7.50;99.90;;;;;;5036994;28;20426;-69
2023/02/03 06:23:06;;;;;;;78.68;10.52;;;7.50;99.90;;;;;;5055061;28;20063;-69
2023/02/03 06:25:32;;;;;;;101.30;12.35;;;7.50;99.90;;;;;;5054855;28;20434;-69
2023/02/03 06:27:58;;;;;;;59.85;8.77;;;7.50;99.90;;;;;;5054557;28;20025;-69
2023/02/03 06:30:23;;;;;;;90.40;10.50;;;7.50;99.90;;;;;;5054827;28;20021;-69
2023/02/03 06:32:49;;;;;;;89.72;10.38;;;7.50;99.90;;;;;;5054927;28;20025;-69
2023/02/03 06:35:14;;;;;;;67.22;8.50;;;7.50;99.90;;;;;;5055151;28;20035;-69
2023/02/03 06:37:40;;;;;;;57.90;9.30;;;7.50;99.90;;;;;;5054741;28;20025;-69
2023/02/03 06:40:06;;;;;;;81.88;10.25;;;7.50;99.90;;;;;;5054856;28;20032;-69
2023/02/03 06:42:32;;;;;;;75.45;9.38;;;7.60;99.90;;;;;;5054813;28;20032;-69
2023/02/03 06:44:58;;;;;;;91.40;13.73;;;7.60;99.90;;;;;;5054698;28;20029;-69
2023/02/03 06:47:23;;;;;;;94.57;12.43;;;7.60;99.90;;;;;;5054375;28;20078;-69
2023/02/03 06:49:50;;;;;;;96.85;13.75;;;7.50;99.90;;;;;;5054400;28;20025;-69
2023/02/03 06:52:16;;;;;;;98.28;14.25;;;7.50;99.90;;;;;;5055034;28;20032;-69
2023/02/03 06:54:41;;;;;;;94.28;12.85;;;7.50;99.90;;;;;;5054213;28;20047;-69
2023/02/03 06:57:07;;;;;;;98.03;12.32;;;7.50;99.90;;;;;;5054202;28;20502;-70
2023/02/03 06:59:32;;;;;;;97.05;13.27;;;7.50;99.90;;;;;;5069712;28;20069;-69
2023/02/03 07:01:58;;;;;;;99.47;13.93;;;7.40;99.90;;;;;;5054292;28;20110;-69
2023/02/03 07:04:23;;;;;;;102.72;14.20;;;7.40;99.90;;;;;;5054318;28;20024;-69
2023/02/03 07:06:49;;;;;;;94.88;13.50;;;7.40;99.90;;;;;;5053769;28;20025;-69
2023/02/03 07:09:15;;;;;;;98.75;13.48;;;7.40;99.90;;;;;;5054207;28;20056;-69
2023/02/03 07:11:40;;;;;;;113.32;15.13;;;7.40;99.90;;;;;;5054126;28;20533;-69
2023/02/03 07:14:06;;;;;;;88.38;13.63;;;7.30;99.90;;;;;;5054064;28;20036;-69
2023/02/03 07:16:33;;;;;;;116.18;14.50;;;7.40;99.90;;;;;;5052729;28;20033;-70
2023/02/03 07:18:59;;;;;;;103.03;15.02;;;7.40;99.90;;;;;;5054205;28;20032;-69
2023/02/03 07:21:24;;;;;;;96.00;14.30;;;7.30;99.90;;;;;;5054163;28;20021;-71
2023/02/03 07:23:50;;;;;;;101.65;13.25;;;7.20;99.90;;;;;;5034223;28;20037;-72
2023/02/03 07:26:16;;;;;;;99.93;13.98;;;7.20;99.90;;;;;;5034039;28;20026;-71
2023/02/03 07:28:42;;;;;;;94.75;13.25;;;7.20;99.90;;;;;;5034187;28;20021;-72
2023/02/03 07:31:09;;;;;;;97.13;15.75;;;7.20;99.90;;;;;;5033976;28;20075;-72
2023/02/03 07:33:35;;;;;;;124.82;13.38;;;7.10;99.90;;;;;;5045355;28;20058;-72
2023/02/03 07:36:02;;;;;;;90.50;14.45;;;7.10;99.90;;;;;;5053999;28;20037;-72
2023/02/03 07:38:28;;;;;;;107.30;12.95;;;7.00;99.90;;;;;;5053920;28;20104;-72
2023/02/03 07:40:53;;;;;;;93.22;15.82;;;7.00;99.90;;;;;;5054231;28;20028;-70
2023/02/03 07:43:19;;;;;;;100.30;14.20;;;7.00;99.90;;;;;;5053326;28;20387;-70
2023/02/03 07:45:45;;;;;;;103.85;15.32;;;7.00;99.90;;;;;;5053765;28;20028;-70
2023/02/03 07:48:11;;;;;;;96.07;14.57;;;7.00;99.90;;;;;;5053410;28;20029;-70
2023/02/03 07:50:37;;;;;;;96.13;14.50;;;7.00;99.90;;;;;;5053487;28;20028;-69
2023/02/03 07:53:03;;;;;;;116.55;16.10;;;7.00;99.90;;;;;;5053429;28;20021;-70
2023/02/03 07:55:29;;;;;;;116.20;13.52;;;7.00;99.90;;;;;;5052787;28;20392;-70
2023/02/03 07:57:56;;;;;;;127.72;17.15;;;7.00;99.90;;;;;;5044969;28;20032;-70
2023/02/03 08:00:22;;;;;;;104.78;14.02;;;7.00;99.90;;;;;;5033973;28;20377;-70
2023/02/03 08:02:48;;;;;;;112.30;14.73;;;7.10;99.90;;;;;;5033493;28;20550;-70
2023/02/03 08:05:15;;;;;;;108.00;14.35;;;7.10;99.90;;;;;;5033196;28;20033;-70
2023/02/03 08:07:41;;;;;;;109.07;14.70;;;7.10;99.90;;;;;;5048219;28;20078;-70
2023/02/03 08:10:09;;;;;;;106.97;16.38;;;7.10;99.90;;;;;;5053600;28;20036;-71
2023/02/03 08:12:35;;;;;;;94.43;15.35;;;7.10;99.90;;;;;;5053167;28;20061;-70
2023/02/03 08:15:00;;;;;;;93.60;13.73;;;7.10;99.90;;;;;;5054239;28;20077;-71
2023/02/03 08:17:26;;;;;;;106.28;14.95;;;7.10;99.90;;;;;;5054320;28;20058;-71
2023/02/03 08:19:52;;;;;;;91.35;14.10;;;7.10;99.90;;;;;;5053038;28;20108;-71
2023/02/03 08:22:18;;;;;;;105.80;16.83;;;7.10;99.90;;;;;;5052878;28;20025;-70
2023/02/03 08:24:45;;;;;;;133.90;17.63;;;7.10;99.90;;;;;;5053049;28;20032;-71
2023/02/03 08:27:12;;;;;;;95.18;14.82;;;7.00;99.90;;;;;;5053065;28;20025;-71
2023/02/03 08:29:37;;;;;;;117.80;18.00;;;7.10;99.90;;;;;;5052673;28;20045;-71
2023/02/03 08:32:03;;;;;;;127.93;17.70;;;7.00;99.90;;;;;;5033084;28;20392;-71
2023/02/03 08:34:29;;;;;;;126.70;16.42;;;7.00;99.90;;;;;;5032962;28;20061;-70
2023/02/03 08:36:54;;;;;;;111.43;16.35;;;7.00;99.90;;;;;;5033397;28;20368;-71
2023/02/03 08:39:20;;;;;;;127.90;15.10;;;7.10;99.90;;;;;;5032960;28;20082;-71
2023/02/03 08:41:45;;;;;;;129.57;16.05;;;7.10;99.90;;;;;;5043729;28;20033;-71
2023/02/03 08:44:11;;;;;;;105.65;15.82;;;7.10;99.90;;;;;;5052884;28;20040;-71
2023/02/03 08:46:42;;;;;;;108.03;16.33;;;7.20;99.90;;;;;;5052905;28;20021;-71
2023/02/03 08:49:07;;;;;;;119.88;15.45;;;7.30;99.90;;;;;;5068273;28;20017;-71
2023/02/03 08:51:33;;;;;;;109.97;15.68;;;7.20;99.90;;;;;;5052821;28;20376;-71
2023/02/03 08:53:58;;;;;;;110.30;17.08;;;7.20;99.90;;;;;;5053274;28;20029;-71
2023/02/03 08:56:25;;;;;;;101.28;14.77;;;7.10;99.90;;;;;;5053095;28;20028;-71
2023/02/03 08:58:51;;;;;;;118.60;14.45;;;7.10;99.90;;;;;;5052637;28;20021;-71
2023/02/03 09:01:16;;;;;;;121.55;18.20;;;7.20;99.90;;;;;;5052503;28;20397;-71
2023/02/03 09:03:42;;;;;;;119.38;15.65;;;7.20;99.90;;;;;;5052816;28;20494;-71
2023/02/03 09:06:11;;;;;;;97.70;14.73;;;7.20;99.90;;;;;;5052710;28;20025;-71
2023/02/03 09:08:37;;;;;;;123.40;17.13;;;7.30;99.90;;;;;;5054401;28;20483;-71
2023/02/03 09:11:09;;;;;;;87.30;13.23;;;7.30;99.90;;;;;;5056632;28;20033;-72
2023/02/03 09:13:34;;;;;;;90.93;13.93;;;7.30;99.90;;;;;;5056454;28;20036;-71
2023/02/03 09:16:00;;;;;;;114.95;16.00;;;7.40;99.90;;;;;;5056357;28;20467;-70
2023/02/03 09:18:25;;;;;;;104.25;13.13;;;7.50;99.90;;;;;;5056542;28;20100;-71
2023/02/03 09:20:51;;;;;;;115.43;13.73;;;7.50;99.90;;;;;;5056375;28;20021;-71
2023/02/03 09:23:16;;;;;;;98.78;13.95;;;7.40;99.90;;;;;;5056655;28;20036;-71
2023/02/03 09:25:42;;;;;;;102.05;14.02;;;7.40;99.90;;;;;;5055926;28;20031;-71
2023/02/03 09:28:07;;;;;;;86.47;13.20;;;7.30;99.90;;;;;;5056829;28;20120;-71
2023/02/03 09:30:33;;;;;;;84.47;13.82;;;7.30;99.90;;;;;;5056074;28;20102;-71
2023/02/03 09:32:59;;;;;;;101.75;14.07;;;7.40;99.90;;;;;;5055897;28;20056;-71
2023/02/03 09:35:25;;;;;;;98.22;13.50;;;7.60;99.90;;;;;;5054834;28;20126;-71
2023/02/03 09:37:51;;;;;;;100.15;15.40;;;7.70;99.90;;;;;;5055980;28;20017;-71
2023/02/03 09:40:29;;;;;;;106.13;12.70;;;7.70;99.90;;;;;;5056049;28;20064;-71
2023/02/03 09:43:28;;;;;;;94.45;14.73;;;7.70;99.90;;;;;;5056345;28;20060;-71
2023/02/03 09:45:59;;;;;;;82.45;11.10;;;7.70;99.90;;;;;;5054882;28;20037;-71
2023/02/03 09:48:31;;;;;;;92.13;14.30;;;7.70;99.90;;;;;;5045453;28;20025;-71
2023/02/03 09:50:56;;;;;;;104.22;14.23;;;7.70;99.90;;;;;;5058679;28;20027;-71
2023/02/03 09:53:29;;;;;;;96.18;14.27;;;7.80;99.90;;;;;;5056745;28;20092;-71
2023/02/03 09:55:56;;;;;;;129.05;15.40;;;7.90;99.90;;;;;;5052973;28;20478;-71
2023/02/03 09:58:23;;;;;;;98.53;13.13;;;7.80;99.90;;;;;;5055656;28;20028;-71
2023/02/03 10:00:59;;;;;;;99.93;15.18;;;7.80;99.90;;;;;;5056083;28;20487;-71
2023/02/03 10:03:35;;;;;;;92.53;12.73;;;7.80;99.90;;;;;;5054297;28;20466;-71
2023/02/03 10:06:38;;;;;;;85.88;13.85;;;7.70;99.90;;;;;;5055401;28;20021;-71
2023/02/03 10:09:33;;;;;;;86.95;13.68;;;7.80;99.90;;;;;;5055240;28;20029;-71
2023/02/03 10:12:17;;;;;;;102.93;14.50;;;7.80;99.90;;;;;;5052479;28;20116;-71
2023/02/03 10:15:19;;;;;;;84.03;12.30;;;7.80;99.90;;;;;;5054982;28;20021;-71
2023/02/03 10:18:14;;;;;;;114.97;16.50;;;7.90;99.90;;;;;;5055443;28;20025;-71
2023/02/03 10:20:45;;;;;;;79.43;12.00;;;7.90;99.90;;;;;;5054555;28;20041;-71
2023/02/03 10:23:16;;;;;;;80.88;13.02;;;7.90;99.90;;;;;;5070620;28;20025;-71
2023/02/03 10:25:48;;;;;;;105.15;13.68;;;7.90;99.90;;;;;;5055144;28;20204;-71
2023/02/03 10:28:21;;;;;;;112.07;14.75;;;7.90;99.90;;;;;;5055323;28;20021;-71
2023/02/03 10:30:50;;;;;;;85.47;16.50;;;7.90;99.90;;;;;;5055120;28;20082;-71
2023/02/03 10:33:18;;;;;;;107.38;15.90;;;8.00;99.90;;;;;;5054903;28;20017;-71
2023/02/03 10:36:09;;;;;;;95.10;14.77;;;8.00;99.90;;;;;;5053386;28;20490;-72
2023/02/03 10:39:02;;;;;;;99.00;13.60;;;8.10;99.90;;;;;;5055380;28;20043;-71
2023/02/03 10:41:29;;;;;;;80.30;12.05;;;8.10;99.90;;;;;;5056139;28;20025;-71
2023/02/03 10:43:55;;;;;;;107.47;15.48;;;8.10;99.90;;;;;;5039976;28;20029;-71
2023/02/03 10:46:28;;;;;;;84.55;14.50;;;8.10;99.90;;;;;;5051621;28;20025;-71
2023/02/03 10:48:54;;;;;;;78.43;13.10;;;8.10;99.90;;;;;;5054796;28;20025;-71
2023/02/03 10:51:23;;;;;;;82.32;13.60;;;8.10;99.90;;;;;;5054738;28;20025;-71
2023/02/03 10:53:52;;;;;;;98.63;13.63;;;8.10;99.90;;;;;;5054353;28;20023;-71
2023/02/03 10:56:24;;;;;;;84.05;13.30;;;8.10;99.90;;;;;;5054363;28;20376;-71
2023/02/03 10:58:55;;;;;;;87.32;13.57;;;8.10;99.90;;;;;;5054501;28;20071;-71
2023/02/03 11:01:27;;;;;;;80.60;12.80;;;8.10;99.90;;;;;;5054344;28;20476;-71
2023/02/03 11:03:54;;;;;;;99.05;12.98;;;8.20;99.90;;;;;;5055476;28;20490;-71
2023/02/03 11:06:20;;;;;;;81.00;12.25;;;8.20;99.90;;;;;;5046483;28;20105;-71
2023/02/03 11:08:48;;;;;;;83.93;11.50;;;8.30;99.90;;;;;;5035456;28;20100;-71
2023/02/03 11:11:31;;;;;;;97.00;13.48;;;8.30;99.90;;;;;;5054200;28;20033;-71
2023/02/03 11:14:02;;;;;;;93.77;13.40;;;8.30;99.90;;;;;;5053989;28;20066;-71
2023/02/03 11:16:29;;;;;;;88.68;11.20;;;8.30;99.90;;;;;;5054064;28;20029;-71
2023/02/03 11:18:58;;;;;;;81.38;13.18;;;8.20;99.90;;;;;;5053911;28;20368;-71
2023/02/03 11:21:40;;;;;;;86.40;12.40;;;8.30;99.90;;;;;;5054133;28;20414;-71
2023/02/03 11:24:29;;;;;;;107.35;13.00;;;8.20;99.90;;;;;;5054152;28;20031;-71
2023/02/03 11:27:03;;;;;;;87.93;12.82;;;8.20;99.90;;;;;;5054039;28;20021;-71
2023/02/03 11:29:38;;;;;;;87.60;12.40;;;8.00;99.90;;;;;;5052658;28;20108;-71
2023/02/03 11:32:22;;;;;;;86.05;14.45;;;8.00;99.90;;;;;;5042692;28;20035;-71
2023/02/03 11:35:22;;;;;;;92.90;13.50;;;8.00;99.90;;;;;;5044569;28;20028;-71
2023/02/03 11:37:50;;;;;;;95.88;14.80;;;7.90;99.90;;;;;;5052808;28;20032;-71
2023/02/03 11:40:18;;;;;;;101.72;14.80;;;7.90;99.90;;;;;;5045758;28;20028;-71
2023/02/03 11:42:48;;;;;;;105.55;14.57;;;7.80;99.90;;;;;;5049501;28;20081;-71
2023/02/03 11:45:28;;;;;;;86.43;13.38;;;7.70;99.90;;;;;;5043106;28;20028;-71
2023/02/03 11:48:01;;;;;;;101.30;13.27;;;7.80;99.90;;;;;;5049583;28;20604;-71
2023/02/03 11:50:37;;;;;;;105.82;16.08;;;7.70;99.90;;;;;;5050486;28;20025;-71
2023/02/03 11:53:21;;;;;;;82.20;11.35;;;7.80;99.90;;;;;;5048814;28;20025;-71
2023/02/03 11:56:04;;;;;;;87.10;13.55;;;7.80;99.90;;;;;;5046407;28;20078;-71
2023/02/03 11:58:58;;;;;;;81.65;14.57;;;7.80;99.90;;;;;;5042100;28;20033;-72
2023/02/03 12:01:44;;;;;;;104.75;13.65;;;7.70;99.90;;;;;;5053303;28;20483;-71
2023/02/03 12:04:41;;;;;;;88.15;13.90;;;7.70;99.90;;;;;;5053150;28;20039;-71
2023/02/03 12:07:30;;;;;;;88.80;12.20;;;7.70;99.90;;;;;;5043044;28;20056;-71
2023/02/03 12:10:18;;;;;;;104.15;14.15;;;7.80;99.90;;;;;;5053465;28;20037;-71
2023/02/03 12:13:23;;;;;;;88.80;14.05;;;7.80;99.90;;;;;;5042663;28;20387;-71
2023/02/03 12:16:22;;;;;;;102.07;13.75;;;7.80;99.90;;;;;;5051380;28;20062;-71
2023/02/03 12:19:12;;;;;;;104.07;14.13;;;7.70;99.90;;;;;;5039215;28;20361;-71
2023/02/03 12:21:44;;;;;;;80.63;14.00;;;7.70;99.90;;;;;;5044697;28;20072;-71
2023/02/03 12:24:18;;;;;;;84.40;15.07;;;7.70;99.90;;;;;;5053341;28;20064;-71
2023/02/03 12:27:01;;;;;;;94.75;14.02;;;7.70;99.90;;;;;;5048738;28;20096;-71
2023/02/03 12:29:35;;;;;;;70.03;11.13;;;7.70;99.90;;;;;;5046881;28;20021;-71
2023/02/03 12:32:13;;;;;;;100.38;17.45;;;7.80;99.90;;;;;;5068690;28;20117;-71
2023/02/03 12:35:00;;;;;;;95.60;19.23;;;7.80;99.90;;;;;;5049992;28;20021;-71
2023/02/03 12:37:31;;;;;;;96.93;18.05;;;7.70;99.90;;;;;;5066550;28;20032;-71
2023/02/03 12:40:05;;;;;;;77.53;12.02;;;7.70;99.90;;;;;;5052887;28;20542;-71
2023/02/03 12:42:34;;;;;;;;;;;7.80;99.90;;;;;;5054933;28;20032;-71
2023/02/03 12:45:10;;;;;;;95.03;13.85;;;7.70;99.90;;;;;;5057240;28;19905;-71
2023/02/03 12:47:39;;;;;;;96.45;20.33;;;7.70;99.90;;;;;;5057059;28;20021;-71
2023/02/03 12:50:14;;;;;;;90.45;16.10;;;7.70;99.90;;;;;;5057096;28;20067;-71
2023/02/03 12:52:53;;;;;;;90.47;14.18;;;7.70;99.90;;;;;;5057125;28;20053;-71
2023/02/03 12:55:37;;;;;;;80.63;12.07;;;7.70;99.90;;;;;;5057029;28;20024;-71
2023/02/03 12:58:44;;;;;;;103.32;12.77;;;7.70;99.90;;;;;;5056175;28;20396;-71